Time;durP1;ratioP1;P1;durP2;ratioP2;P2;SDS_P1;SDS_P2;PMS_P1;PMS_P2;Temp;Humidity;BMP_temperature;BMP_pressure;BME280_temperature;BME280_humidity;BME280_pressure;Samples;Min_cycle;Max_cycle;Signal;HPM_P1;HPM_P2
2023/09/10 00:01:04;;;;;;;1999.90;999.90;;;23.90;99.90;;;;;;5079552;28;20415;-79
2023/09/10 00:03:32;;;;;;;1999.90;999.90;;;23.90;99.90;;;;;;5079895;28;20022;-75
2023/09/10 00:05:59;;;;;;;1999.90;999.90;;;23.90;99.90;;;;;;5075871;28;20026;-79
2023/09/10 00:08:25;;;;;;;1999.90;999.90;;;24.00;99.90;;;;;;5075366;28;20028;-78
2023/09/10 00:10:51;;;;;;;1999.90;999.90;;;24.00;99.90;;;;;;5075435;28;20020;-78
2023/09/10 00:13:17;;;;;;;1999.90;999.90;;;24.00;99.90;;;;;;5075125;28;20025;-75
2023/09/10 00:15:43;;;;;;;1999.90;999.90;;;24.50;99.90;;;;;;5081680;28;20036;-74
2023/09/10 00:18:09;;;;;;;1999.90;999.90;;;25.00;99.90;;;;;;5055574;28;20028;-79
2023/09/10 00:20:34;;;;;;;1999.90;999.90;;;24.60;99.90;;;;;;5090667;28;20786;-74
2023/09/10 00:23:00;;;;;;;1999.90;999.90;;;24.10;99.90;;;;;;5082218;28;20467;-79
2023/09/10 00:25:26;;;;;;;1999.90;999.90;;;23.80;99.90;;;;;;5075020;28;20368;-80
2023/09/10 00:27:52;;;;;;;1999.90;999.90;;;23.80;99.90;;;;;;5075415;28;20028;-75
2023/09/10 00:30:18;;;;;;;1999.90;999.90;;;24.00;99.90;;;;;;5075606;28;20021;-80
2023/09/10 00:32:44;;;;;;;1999.90;999.90;;;24.00;99.90;;;;;;5075471;28;20407;-78
2023/09/10 00:35:09;;;;;;;1999.90;999.90;;;24.00;99.90;;;;;;5075066;28;20074;-79
2023/09/10 00:37:35;;;;;;;1999.90;999.90;;;24.00;99.90;;;;;;5074828;28;20054;-79
2023/09/10 00:40:00;;;;;;;1999.90;999.90;;;24.00;99.90;;;;;;5075499;28;20099;-75
2023/09/10 00:42:26;;;;;;;1999.90;999.90;;;24.00;99.90;;;;;;5075172;28;20029;-74
2023/09/10 00:44:51;;;;;;;1999.90;999.90;;;24.00;99.90;;;;;;5075408;28;20086;-80
2023/09/10 00:47:17;;;;;;;1999.90;999.90;;;24.00;99.90;;;;;;5075053;28;20475;-74
2023/09/10 00:49:44;;;;;;;1999.90;999.90;;;24.00;99.90;;;;;;5073843;28;20083;-80
2023/09/10 00:52:11;;;;;;;1999.90;999.90;;;24.00;99.90;;;;;;5075094;28;20031;-74
2023/09/10 00:54:38;;;;;;;1999.90;999.90;;;24.00;99.90;;;;;;5074930;28;20025;-80
2023/09/10 00:57:04;;;;;;;1999.90;999.90;;;24.00;99.90;;;;;;5074521;28;20020;-74
2023/09/10 00:59:30;;;;;;;1999.90;999.90;;;24.00;99.90;;;;;;5084906;28;20153;-80
2023/09/10 01:01:58;;;;;;;1999.90;999.90;;;23.90;99.90;;;;;;5083355;28;20103;-80
2023/09/10 01:04:23;;;;;;;1999.90;999.90;;;23.90;99.90;;;;;;5074628;28;20040;-80
2023/09/10 01:06:51;;;;;;;1999.90;999.90;;;23.70;99.90;;;;;;5073583;28;20481;-74
2023/09/10 01:09:17;;;;;;;1999.90;999.90;;;23.70;99.90;;;;;;5074207;28;20099;-80
2023/09/10 01:12:01;;;;;;;1999.90;999.90;;;23.60;99.90;;;;;;5074600;28;20056;-80
2023/09/10 01:14:36;;;;;;;1999.90;999.90;;;23.60;99.90;;;;;;5078562;28;20038;-80
2023/09/10 01:17:20;;;;;;;1999.90;999.90;;;23.50;99.90;;;;;;5085463;28;20153;-74
2023/09/10 01:19:51;;;;;;;1999.90;999.90;;;23.40;99.90;;;;;;5094809;28;20036;-74
2023/09/10 01:22:35;;;;;;;1999.90;999.90;;;23.40;99.90;;;;;;5094362;28;20375;-80
2023/09/10 01:25:03;;;;;;;1999.90;999.90;;;23.30;99.90;;;;;;5094516;28;20414;-74
2023/09/10 01:27:29;;;;;;;1999.90;999.90;;;23.30;99.90;;;;;;5094228;28;20047;-74
2023/09/10 01:29:54;;;;;;;1999.90;999.90;;;23.30;99.90;;;;;;5094553;28;20024;-80
2023/09/10 01:32:38;;;;;;;1999.90;999.90;;;23.20;99.90;;;;;;5094751;28;20028;-74
2023/09/10 01:35:24;;;;;;;1999.90;999.90;;;23.20;99.90;;;;;;5094223;28;20028;-74
2023/09/10 01:38:16;;;;;;;1999.90;999.90;;;23.10;99.90;;;;;;5094193;28;20494;-80
2023/09/10 01:40:52;;;;;;;1999.90;999.90;;;23.10;99.90;;;;;;5094394;28;20012;-80
2023/09/10 01:43:19;;;;;;;1999.90;999.90;;;23.10;99.90;;;;;;5094151;28;20035;-81
2023/09/10 01:45:45;;;;;;;1999.90;999.90;;;23.10;99.90;;;;;;5094265;28;20020;-74
2023/09/10 01:48:10;;;;;;;1999.90;999.90;;;23.10;99.90;;;;;;5094219;28;20085;-74
2023/09/10 01:50:36;;;;;;;1999.90;999.90;;;23.10;99.90;;;;;;5093785;28;20107;-80
2023/09/10 01:53:02;;;;;;;1999.90;999.90;;;23.10;99.90;;;;;;5094211;28;20538;-80
2023/09/10 01:55:28;;;;;;;1999.90;999.90;;;23.10;99.90;;;;;;5093669;28;20065;-80
2023/09/10 01:57:54;;;;;;;1999.90;999.90;;;23.20;99.90;;;;;;5084146;28;20055;-74
2023/09/10 02:00:20;;;;;;;1999.90;999.90;;;23.10;99.90;;;;;;5076990;28;20027;-74
2023/09/10 02:02:46;;;;;;;1999.90;999.90;;;23.10;99.90;;;;;;5076765;28;20025;-74
2023/09/10 02:05:11;;;;;;;1999.90;999.90;;;23.10;99.90;;;;;;5093845;28;20044;-80
2023/09/10 02:07:37;;;;;;;1999.90;999.90;;;23.10;99.90;;;;;;5092531;28;20065;-74
2023/09/10 02:10:03;;;;;;;1999.90;999.90;;;23.10;99.90;;;;;;5069258;28;20067;-74
2023/09/10 02:12:28;;;;;;;1999.90;999.90;;;23.00;99.90;;;;;;5081516;28;20412;-74
2023/09/10 02:14:58;;;;;;;1999.90;999.90;;;23.00;99.90;;;;;;5079605;28;20077;-80
2023/09/10 02:17:24;;;;;;;1999.90;999.90;;;23.00;99.90;;;;;;5086549;28;20035;-80
2023/09/10 02:19:49;;;;;;;1999.90;999.90;;;22.90;99.90;;;;;;5093761;28;20468;-74
2023/09/10 02:22:15;;;;;;;1999.90;999.90;;;22.90;99.90;;;;;;5093429;28;20096;-80
2023/09/10 02:24:40;;;;;;;1999.90;999.90;;;22.80;99.90;;;;;;5093366;28;20027;-74
2023/09/10 02:27:06;;;;;;;1999.90;999.90;;;22.70;99.90;;;;;;5093358;28;20559;-74
2023/09/10 02:29:31;;;;;;;1999.90;999.90;;;22.70;99.90;;;;;;5099151;28;20027;-82
2023/09/10 02:31:57;;;;;;;1999.90;999.90;;;22.70;99.90;;;;;;5102670;28;20032;-81
2023/09/10 02:34:23;;;;;;;1999.90;999.90;;;22.70;99.90;;;;;;5110834;28;20020;-79
2023/09/10 02:36:48;;;;;;;1999.90;999.90;;;22.70;99.90;;;;;;5093795;28;20028;-74
2023/09/10 02:39:14;;;;;;;1999.90;999.90;;;22.70;99.90;;;;;;5095584;28;20032;-80
2023/09/10 02:41:40;;;;;;;1999.90;999.90;;;22.70;99.90;;;;;;5102347;28;20051;-80
2023/09/10 02:44:05;;;;;;;1999.90;999.90;;;22.60;99.90;;;;;;5098362;28;20028;-74
2023/09/10 02:46:31;;;;;;;1999.90;999.90;;;22.60;99.90;;;;;;5093118;28;20057;-80
2023/09/10 02:48:56;;;;;;;1999.90;999.90;;;22.60;99.90;;;;;;5093246;28;20054;-75
2023/09/10 02:51:22;;;;;;;1999.90;999.90;;;22.60;99.90;;;;;;5093067;28;20023;-74
2023/09/10 02:53:48;;;;;;;1999.90;999.90;;;22.60;99.90;;;;;;5091794;28;20020;-80
2023/09/10 02:56:14;;;;;;;1999.90;999.90;;;22.50;99.90;;;;;;5092953;28;20446;-80
2023/09/10 02:58:40;;;;;;;1999.90;999.90;;;22.60;99.90;;;;;;5076775;28;20109;-80
2023/09/10 03:01:06;;;;;;;1999.90;999.90;;;22.50;99.90;;;;;;5079670;28;20031;-80
2023/09/10 03:03:34;;;;;;;1999.90;999.90;;;22.50;99.90;;;;;;5073885;28;20375;-75
2023/09/10 03:06:00;;;;;;;1999.90;999.90;;;22.50;99.90;;;;;;5092866;28;20383;-80
2023/09/10 03:08:26;;;;;;;1999.90;999.90;;;22.50;99.90;;;;;;5082087;28;20017;-74
2023/09/10 03:10:52;;;;;;;1999.90;999.90;;;22.40;99.90;;;;;;5082710;28;20016;-80
2023/09/10 03:13:17;;;;;;;1999.90;999.90;;;22.40;99.90;;;;;;5072288;28;20021;-74
2023/09/10 03:15:47;;;;;;;1999.90;999.90;;;22.40;99.90;;;;;;5078114;28;20029;-74
2023/09/10 03:18:13;;;;;;;1999.90;999.90;;;22.40;99.90;;;;;;5052563;28;20049;-80
2023/09/10 03:20:38;;;;;;;1999.90;999.90;;;22.40;99.90;;;;;;5051936;28;20057;-80
2023/09/10 03:23:06;;;;;;;1999.90;999.90;;;22.40;99.90;;;;;;5052731;28;20036;-80
2023/09/10 03:25:35;;;;;;;1999.90;999.90;;;22.50;99.90;;;;;;5071964;28;20082;-80
2023/09/10 03:28:01;;;;;;;1999.90;999.90;;;22.50;99.90;;;;;;5072533;28;20059;-80
2023/09/10 03:30:26;;;;;;;1999.90;999.90;;;22.50;99.90;;;;;;5075262;28;20032;-74
2023/09/10 03:32:52;;;;;;;1999.90;999.90;;;22.50;99.90;;;;;;5076857;28;20040;-80
2023/09/10 03:35:18;;;;;;;1999.90;999.90;;;22.50;99.90;;;;;;5076605;28;20054;-80
2023/09/10 03:37:43;;;;;;;1999.90;999.90;;;22.60;99.90;;;;;;5076432;28;20431;-74
2023/09/10 03:40:09;;;;;;;1999.90;999.90;;;22.60;99.90;;;;;;5076367;28;20032;-80
2023/09/10 03:42:36;;;;;;;1999.90;999.90;;;22.60;99.90;;;;;;5076027;28;20510;-74
2023/09/10 03:45:02;;;;;;;1999.90;999.90;;;22.60;99.90;;;;;;5076414;28;20017;-80
2023/09/10 03:47:29;;;;;;;1999.90;999.90;;;22.60;99.90;;;;;;5076120;28;20382;-80
2023/09/10 03:49:54;;;;;;;1999.90;999.90;;;22.60;99.90;;;;;;5076026;28;20090;-80
2023/09/10 03:52:21;;;;;;;1999.90;999.90;;;22.50;99.90;;;;;;5076075;28;20471;-80
2023/09/10 03:54:47;;;;;;;1999.90;999.90;;;22.50;99.90;;;;;;5075728;28;20028;-80
2023/09/10 03:57:14;;;;;;;1999.90;999.90;;;22.60;99.90;;;;;;5083047;28;20103;-74
2023/09/10 03:59:40;;;;;;;1999.90;999.90;;;22.60;99.90;;;;;;5083900;28;20430;-80
2023/09/10 04:02:06;;;;;;;1999.90;999.90;;;22.60;99.90;;;;;;5082808;28;20028;-80
2023/09/10 04:04:33;;;;;;;1999.90;999.90;;;22.60;99.90;;;;;;5084913;28;20049;-81
2023/09/10 04:06:58;;;;;;;1999.90;999.90;;;22.60;99.90;;;;;;5078894;28;20028;-75
2023/09/10 04:09:24;;;;;;;1999.90;999.90;;;22.60;99.90;;;;;;5081879;28;20024;-80
2023/09/10 04:11:50;;;;;;;1999.90;999.90;;;22.60;99.90;;;;;;5076249;28;20029;-80
2023/09/10 04:14:16;;;;;;;1999.90;999.90;;;22.40;99.90;;;;;;5080288;28;20499;-80
2023/09/10 04:16:41;;;;;;;1999.90;999.90;;;22.30;99.90;;;;;;5085138;28;20031;-76
2023/09/10 04:19:07;;;;;;;1999.90;999.90;;;22.20;99.90;;;;;;5081116;28;20426;-80
2023/09/10 04:21:34;;;;;;;1999.90;999.90;;;22.20;99.90;;;;;;5086462;28;20028;-75
2023/09/10 04:23:59;;;;;;;1999.90;999.90;;;22.20;99.90;;;;;;5095468;28;20031;-81
2023/09/10 04:26:25;;;;;;;1999.90;999.90;;;22.20;99.90;;;;;;5095747;28;20387;-80
2023/09/10 04:28:51;;;;;;;1999.90;999.90;;;22.20;99.90;;;;;;5094639;28;20110;-74
2023/09/10 04:31:17;;;;;;;1999.90;999.90;;;22.20;99.90;;;;;;5095562;28;20036;-80
2023/09/10 04:33:43;;;;;;;1999.90;999.90;;;22.20;99.90;;;;;;5095527;28;20368;-74
2023/09/10 04:36:09;;;;;;;1999.90;999.90;;;22.20;99.90;;;;;;5095599;28;20028;-74
2023/09/10 04:38:35;;;;;;;1999.90;999.90;;;22.20;99.90;;;;;;5095414;28;20059;-81
2023/09/10 04:41:01;;;;;;;1999.90;999.90;;;22.10;99.90;;;;;;5095333;28;20513;-80
2023/09/10 04:43:26;;;;;;;1999.90;999.90;;;22.10;99.90;;;;;;5095568;28;20042;-80
2023/09/10 04:45:52;;;;;;;1999.90;999.90;;;22.10;99.90;;;;;;5095381;28;20047;-74
2023/09/10 04:48:18;;;;;;;1999.90;999.90;;;22.00;99.90;;;;;;5095352;28;20364;-74
2023/09/10 04:50:44;;;;;;;1999.90;999.90;;;22.10;99.90;;;;;;5095281;28;20028;-80
2023/09/10 04:53:10;;;;;;;1999.90;999.90;;;22.00;99.90;;;;;;5092590;28;20024;-80
2023/09/10 04:55:36;;;;;;;1999.90;999.90;;;22.10;99.90;;;;;;5094640;28;20039;-81
2023/09/10 04:58:02;;;;;;;1999.90;999.90;;;22.10;99.90;;;;;;5091016;28;20025;-81
2023/09/10 05:00:28;;;;;;;1999.90;999.90;;;22.10;99.90;;;;;;5084580;28;20032;-80
2023/09/10 05:02:53;;;;;;;1999.90;999.90;;;22.10;99.90;;;;;;5093834;28;20096;-74
2023/09/10 05:05:19;;;;;;;1999.90;999.90;;;22.10;99.90;;;;;;5094677;28;20062;-81
2023/09/10 05:07:48;;;;;;;1999.90;999.90;;;22.10;99.90;;;;;;5094417;28;20028;-74
2023/09/10 05:10:14;;;;;;;1999.90;999.90;;;22.20;99.90;;;;;;5074982;28;20483;-80
2023/09/10 05:12:40;;;;;;;1999.90;999.90;;;22.20;99.90;;;;;;5082923;28;20115;-80
2023/09/10 05:15:06;;;;;;;1999.90;999.90;;;22.20;99.90;;;;;;5082469;28;20032;-80
2023/09/10 05:17:32;;;;;;;1999.90;999.90;;;22.30;99.90;;;;;;5078396;28;20028;-81
2023/09/10 05:19:58;;;;;;;1999.90;999.90;;;22.30;99.90;;;;;;5074409;28;20028;-80
2023/09/10 05:22:23;;;;;;;1999.90;999.90;;;22.30;99.90;;;;;;5082958;28;20017;-81
2023/09/10 05:24:49;;;;;;;1999.90;999.90;;;22.30;99.90;;;;;;5087616;28;20071;-81
2023/09/10 05:27:15;;;;;;;1999.90;999.90;;;22.30;99.90;;;;;;5094502;28;20055;-74
2023/09/10 05:29:40;;;;;;;1999.90;999.90;;;22.30;99.90;;;;;;5094489;28;20489;-74
2023/09/10 05:32:06;;;;;;;1999.90;999.90;;;22.30;99.90;;;;;;5094724;28;20035;-81
2023/09/10 05:34:32;;;;;;;1999.90;999.90;;;22.30;99.90;;;;;;5094008;28;20028;-81
2023/09/10 05:36:57;;;;;;;1999.90;999.90;;;22.40;99.90;;;;;;5094295;28;20031;-81
2023/09/10 05:39:23;;;;;;;1999.90;999.90;;;22.40;99.90;;;;;;5093962;28;20108;-81
2023/09/10 05:41:48;;;;;;;1999.90;999.90;;;22.50;99.90;;;;;;5094430;28;20024;-81
2023/09/10 05:44:14;;;;;;;1999.90;999.90;;;22.50;99.90;;;;;;5094629;28;20149;-81
2023/09/10 05:46:40;;;;;;;1999.90;999.90;;;22.50;99.90;;;;;;5093909;28;20025;-81
2023/09/10 05:49:05;;;;;;;1999.90;999.90;;;22.60;99.90;;;;;;5094176;28;20039;-74
2023/09/10 05:51:31;;;;;;;1999.90;999.90;;;22.60;99.90;;;;;;5093473;28;20025;-81
2023/09/10 05:53:57;;;;;;;1999.90;999.90;;;22.60;99.90;;;;;;5093811;28;20036;-74
2023/09/10 05:56:22;;;;;;;1999.90;999.90;;;22.70;99.90;;;;;;5093089;28;20031;-81
2023/09/10 05:58:48;;;;;;;1999.90;999.90;;;22.70;99.90;;;;;;5081538;28;20032;-80
2023/09/10 06:01:14;;;;;;;1999.90;999.90;;;22.70;99.90;;;;;;5073660;28;20017;-81
2023/09/10 06:03:39;;;;;;;1999.90;999.90;;;22.60;99.90;;;;;;5090612;28;20032;-81
2023/09/10 06:06:05;;;;;;;1999.90;999.90;;;22.60;99.90;;;;;;5082237;28;20388;-73
2023/09/10 06:08:31;;;;;;;1999.90;999.90;;;22.70;99.90;;;;;;5076987;28;20024;-74
2023/09/10 06:10:56;;;;;;;1999.90;999.90;;;22.70;99.90;;;;;;5087686;28;20398;-81
2023/09/10 06:13:22;;;;;;;1999.90;999.90;;;22.70;99.90;;;;;;5073612;28;20550;-73
2023/09/10 06:15:48;;;;;;;1999.90;999.90;;;22.70;99.90;;;;;;5080259;28;20033;-80
2023/09/10 06:18:13;;;;;;;1999.90;999.90;;;22.70;99.90;;;;;;5092111;28;20115;-73
2023/09/10 06:20:39;;;;;;;1999.90;999.90;;;22.70;99.90;;;;;;5091522;28;20030;-74
2023/09/10 06:23:05;;;;;;;1999.90;999.90;;;22.70;99.90;;;;;;5073094;28;20028;-81
2023/09/10 06:25:31;;;;;;;1999.90;999.90;;;22.70;99.90;;;;;;5073442;28;20035;-81
2023/09/10 06:27:57;;;;;;;1999.90;999.90;;;22.70;99.90;;;;;;5073583;28;20115;-80
2023/09/10 06:30:23;;;;;;;1999.90;999.90;;;22.80;99.90;;;;;;5090903;28;20110;-73
2023/09/10 06:32:49;;;;;;;1999.90;999.90;;;22.80;99.90;;;;;;5078261;28;20137;-74
2023/09/10 06:35:15;;;;;;;1999.90;999.90;;;22.80;99.90;;;;;;5073598;28;20082;-81
2023/09/10 06:37:41;;;;;;;1999.90;999.90;;;22.80;99.90;;;;;;5072992;28;20021;-73
2023/09/10 06:40:07;;;;;;;1999.90;999.90;;;22.80;99.90;;;;;;5073200;28;20074;-73
2023/09/10 06:42:32;;;;;;;1999.90;999.90;;;22.90;99.90;;;;;;5073232;28;20088;-81
2023/09/10 06:44:58;;;;;;;1999.90;999.90;;;22.90;99.90;;;;;;5087359;28;20505;-74
2023/09/10 06:47:24;;;;;;;1999.90;999.90;;;22.80;99.90;;;;;;5093294;28;20394;-81
2023/09/10 06:49:49;;;;;;;1999.90;999.90;;;22.80;99.90;;;;;;5082761;28;20119;-81
2023/09/10 06:52:15;;;;;;;1999.90;999.90;;;22.90;99.90;;;;;;5076494;28;20020;-81
2023/09/10 06:54:40;;;;;;;1999.90;999.90;;;22.90;99.90;;;;;;5083523;28;20048;-81
2023/09/10 06:57:06;;;;;;;1999.90;999.90;;;22.90;99.90;;;;;;5077751;28;20077;-74
2023/09/10 06:59:31;;;;;;;1999.90;999.90;;;23.00;99.90;;;;;;5076508;28;20033;-74
2023/09/10 07:01:57;;;;;;;1999.90;999.90;;;23.10;99.90;;;;;;5072786;28;20028;-81
2023/09/10 07:04:24;;;;;;;1999.90;999.90;;;23.20;99.90;;;;;;5083570;28;20040;-81
2023/09/10 07:06:52;;;;;;;1999.90;999.90;;;23.20;99.90;;;;;;5097397;28;20551;-81
2023/09/10 07:09:21;;;;;;;1999.90;999.90;;;23.30;99.90;;;;;;5083755;28;20074;-74
2023/09/10 07:11:51;;;;;;;1999.90;999.90;;;23.30;99.90;;;;;;5087982;28;20028;-74
2023/09/10 07:14:18;;;;;;;1999.90;999.90;;;23.30;99.90;;;;;;5086794;28;20081;-74
2023/09/10 07:16:45;;;;;;;1999.90;999.90;;;23.20;99.90;;;;;;5086272;28;20510;-80
2023/09/10 07:19:11;;;;;;;1999.90;999.90;;;23.30;99.90;;;;;;5086822;28;20028;-81
2023/09/10 07:21:37;;;;;;;1999.90;999.90;;;23.30;99.90;;;;;;5097189;28;20027;-81
2023/09/10 07:24:06;;;;;;;1999.90;999.90;;;23.30;99.90;;;;;;5096467;28;20471;-80
2023/09/10 07:26:38;;;;;;;1999.90;999.90;;;23.40;99.90;;;;;;5096695;28;20017;-81
2023/09/10 07:29:07;;;;;;;1999.90;999.90;;;23.30;99.90;;;;;;5096841;28;20016;-81
2023/09/10 07:31:33;;;;;;;1999.90;999.90;;;23.30;99.90;;;;;;5091577;28;20024;-81
2023/09/10 07:34:00;;;;;;;1999.90;999.90;;;23.30;99.90;;;;;;5087844;28;20020;-74
2023/09/10 07:36:26;;;;;;;1999.90;999.90;;;23.40;99.90;;;;;;5096466;28;20057;-80
2023/09/10 07:38:52;;;;;;;1999.90;999.90;;;23.50;99.90;;;;;;5096644;28;20036;-81
2023/09/10 07:41:17;;;;;;;1999.90;999.90;;;23.50;99.90;;;;;;5096671;28;20103;-74
2023/09/10 07:43:43;;;;;;;1999.90;999.90;;;23.60;99.90;;;;;;5096878;28;20467;-74
2023/09/10 07:46:08;;;;;;;1999.90;999.90;;;23.60;99.90;;;;;;5096605;28;20487;-80
2023/09/10 07:48:35;;;;;;;1999.90;999.90;;;23.70;99.90;;;;;;5095091;28;20024;-81
2023/09/10 07:51:00;;;;;;;1999.90;999.90;;;23.70;99.90;;;;;;5096140;28;20031;-74
2023/09/10 07:53:26;;;;;;;1999.90;999.90;;;23.80;99.90;;;;;;5096498;28;20044;-74
2023/09/10 07:55:52;;;;;;;1999.90;999.90;;;23.90;99.90;;;;;;5096484;28;20020;-81
2023/09/10 07:58:18;;;;;;;1999.90;999.90;;;24.10;99.90;;;;;;5092038;28;20043;-80
2023/09/10 08:00:43;;;;;;;1999.90;999.90;;;24.10;99.90;;;;;;5091650;28;20530;-80
2023/09/10 08:03:09;;;;;;;1999.90;999.90;;;24.20;99.90;;;;;;5085739;28;20112;-74
2023/09/10 08:05:35;;;;;;;1999.90;999.90;;;24.30;99.90;;;;;;5082100;28;20139;-74
2023/09/10 08:08:04;;;;;;;1999.90;999.90;;;24.40;99.90;;;;;;5076173;28;20032;-81
2023/09/10 08:10:30;;;;;;;1999.90;999.90;;;24.50;99.90;;;;;;5087427;28;20093;-81
2023/09/10 08:12:56;;;;;;;1999.90;999.90;;;24.70;99.90;;;;;;5075607;28;20036;-81
2023/09/10 08:15:22;;;;;;;1999.90;999.90;;;25.20;99.90;;;;;;5083501;28;20103;-74
2023/09/10 08:17:54;;;;;;;1999.90;999.90;;;25.50;99.90;;;;;;5091020;28;20031;-81
2023/09/10 08:20:20;;;;;;;1999.90;999.90;;;25.70;99.90;;;;;;5095780;28;20035;-80
2023/09/10 08:22:45;;;;;;;1999.90;999.90;;;26.00;99.90;;;;;;5095462;28;20020;-81
2023/09/10 08:25:11;;;;;;;1999.90;999.90;;;26.30;99.90;;;;;;5095450;28;20443;-81
2023/09/10 08:27:37;;;;;;;1999.90;999.90;;;26.30;99.90;;;;;;5095466;28;20398;-74
2023/09/10 08:30:05;;;;;;;1999.90;999.90;;;25.90;99.90;;;;;;5095653;28;20024;-74
2023/09/10 08:32:35;;;;;;;1999.90;999.90;;;25.90;99.90;;;;;;5095524;28;20024;-81
2023/09/10 08:35:01;;;;;;;1999.90;999.90;;;25.80;99.90;;;;;;5095560;28;20024;-81
2023/09/10 08:37:27;;;;;;;1999.90;999.90;;;25.70;99.90;;;;;;5095341;28;20035;-81
2023/09/10 08:39:53;;;;;;;1999.90;999.90;;;26.60;99.90;;;;;;5095303;28;20058;-75
2023/09/10 08:42:28;;;;;;;1999.90;999.90;;;27.40;99.90;;;;;;5083038;28;20016;-75
2023/09/10 08:44:58;;;;;;;1999.90;999.90;;;27.70;99.90;;;;;;5081323;28;20135;-81
2023/09/10 08:47:25;;;;;;;1999.90;999.90;;;27.60;99.90;;;;;;5086808;28;20028;-81
2023/09/10 08:49:55;;;;;;;1999.90;999.90;;;26.90;99.90;;;;;;5082094;28;20024;-74
2023/09/10 08:52:22;;;;;;;1999.90;999.90;;;26.20;99.90;;;;;;5073364;28;20028;-80
2023/09/10 08:54:48;;;;;;;1999.90;999.90;;;25.60;99.90;;;;;;5073773;28;20033;-75
2023/09/10 08:57:15;;;;;;;1999.90;999.90;;;25.50;99.90;;;;;;5073222;28;20021;-81
2023/09/10 08:59:42;;;;;;;1999.90;999.90;;;25.30;99.90;;;;;;5075985;28;20039;-80
2023/09/10 09:02:09;;;;;;;1999.90;999.90;;;25.50;99.90;;;;;;5079891;28;20410;-74
2023/09/10 09:04:35;;;;;;;1999.90;999.90;;;25.50;99.90;;;;;;5094813;28;20455;-80
2023/09/10 09:07:02;;;;;;;1999.90;999.90;;;25.30;99.90;;;;;;5093855;28;20058;-74
2023/09/10 09:09:34;;;;;;;1999.90;999.90;;;25.10;99.90;;;;;;5075694;28;20052;-74
2023/09/10 09:12:03;;;;;;;1999.90;999.90;;;25.10;99.90;;;;;;5070068;28;20079;-80
2023/09/10 09:14:29;;;;;;;1999.90;999.90;;;25.50;99.90;;;;;;5076505;28;20448;-80
2023/09/10 09:16:55;;;;;;;1999.90;999.90;;;26.10;99.90;;;;;;5085567;28;20031;-81
2023/09/10 09:19:22;;;;;;;1999.90;999.90;;;26.60;99.90;;;;;;5094696;28;20395;-75
2023/09/10 09:21:50;;;;;;;1999.90;999.90;;;26.70;99.90;;;;;;5093945;28;20043;-75
2023/09/10 09:24:16;;;;;;;1999.90;999.90;;;26.20;99.90;;;;;;5094513;28;20081;-80
2023/09/10 09:26:43;;;;;;;1999.90;999.90;;;26.10;99.90;;;;;;5103790;28;20031;-83
2023/09/10 09:29:09;;;;;;;1999.90;999.90;;;26.20;99.90;;;;;;5107061;28;20024;-81
2023/09/10 09:31:34;;;;;;;1999.90;999.90;;;26.90;99.90;;;;;;5104699;28;20059;-75
2023/09/10 09:34:00;;;;;;;1999.90;999.90;;;27.90;99.90;;;;;;5094809;28;20051;-74
2023/09/10 09:36:27;;;;;;;1999.90;999.90;;;28.50;99.90;;;;;;5094245;28;20032;-75
2023/09/10 09:38:54;;;;;;;1999.90;999.90;;;28.90;99.90;;;;;;5100768;28;20020;-81
2023/09/10 09:41:20;;;;;;;1999.90;999.90;;;28.60;99.90;;;;;;5095714;28;20051;-81
2023/09/10 09:43:46;;;;;;;1999.90;999.90;;;28.80;99.90;;;;;;5094209;28;20070;-81
2023/09/10 09:46:11;;;;;;;1999.90;999.90;;;29.30;99.90;;;;;;5094355;28;20099;-75
2023/09/10 09:48:38;;;;;;;1999.90;999.90;;;30.50;99.90;;;;;;5094055;28;20046;-75
2023/09/10 09:51:04;;;;;;;1999.90;999.90;;;31.30;99.90;;;;;;5094079;28;20066;-79
2023/09/10 09:53:31;;;;;;;1999.90;999.90;;;30.90;99.90;;;;;;5094321;28;20039;-79
2023/09/10 09:56:01;;;;;;;1999.90;999.90;;;30.40;99.90;;;;;;5093936;28;20039;-81
2023/09/10 09:58:29;;;;;;;1999.90;999.90;;;29.70;99.90;;;;;;5077453;28;20036;-75
2023/09/10 10:00:58;;;;;;;1999.90;999.90;;;28.70;99.90;;;;;;5073697;28;20024;-75
2023/09/10 10:03:24;;;;;;;1999.90;999.90;;;29.30;99.90;;;;;;5074638;28;20046;-81
2023/09/10 10:05:51;;;;;;;1999.90;999.90;;;29.20;99.90;;;;;;5093438;28;20518;-76
2023/09/10 10:08:17;;;;;;;1999.90;999.90;;;28.80;99.90;;;;;;5087787;28;20028;-81
2023/09/10 10:10:47;;;;;;;1999.90;999.90;;;28.40;99.90;;;;;;5073124;28;20020;-81
2023/09/10 10:13:17;;;;;;;1999.90;999.90;;;28.50;99.90;;;;;;5073392;28;20503;-75
2023/09/10 10:15:46;;;;;;;1999.90;999.90;;;28.80;99.90;;;;;;5077134;28;20036;-80
2023/09/10 10:18:14;;;;;;;1999.90;999.90;;;28.60;99.90;;;;;;5092429;28;20032;-80
2023/09/10 10:20:41;;;;;;;1999.90;999.90;;;29.20;99.90;;;;;;5093801;28;20031;-81
2023/09/10 10:23:08;;;;;;;1999.90;999.90;;;28.60;99.90;;;;;;5093658;28;20024;-80
2023/09/10 10:25:35;;;;;;;1999.90;999.90;;;29.00;99.90;;;;;;5093497;28;20020;-75
2023/09/10 10:28:03;;;;;;;1999.90;999.90;;;29.30;99.90;;;;;;5092225;28;20028;-80
2023/09/10 10:30:30;;;;;;;1999.90;999.90;;;29.60;99.90;;;;;;5093361;28;20024;-80
2023/09/10 10:33:00;;;;;;;1999.90;999.90;;;29.40;99.90;;;;;;5093845;28;20410;-80
2023/09/10 10:35:28;;;;;;;1999.90;999.90;;;29.70;99.90;;;;;;5093530;28;20024;-79
2023/09/10 10:38:02;;;;;;;1999.90;999.90;;;29.80;99.90;;;;;;5092884;28;20028;-79
2023/09/10 10:40:31;;;;;;;1999.90;999.90;;;30.20;99.90;;;;;;5093669;28;20023;-76
2023/09/10 10:43:13;;;;;;;1999.90;999.90;;;29.70;99.90;;;;;;5093076;28;20036;-80
2023/09/10 10:45:39;;;;;;;1999.90;999.90;;;29.50;99.90;;;;;;5093397;28;20093;-75
2023/09/10 10:48:11;;;;;;;1999.90;999.90;;;29.70;99.90;;;;;;5093305;28;20459;-80
2023/09/10 10:50:38;;;;;;;1999.90;999.90;;;29.80;99.90;;;;;;5093193;28;20071;-75
2023/09/10 10:53:11;;;;;;;1999.90;999.90;;;29.90;99.90;;;;;;5093702;28;20038;-75
2023/09/10 10:55:38;;;;;;;1999.90;999.90;;;29.90;99.90;;;;;;5093241;28;20028;-80
2023/09/10 10:58:04;;;;;;;1999.90;999.90;;;30.20;99.90;;;;;;5089901;28;20032;-80
2023/09/10 11:00:30;;;;;;;1999.90;999.90;;;30.20;99.90;;;;;;5077656;28;20426;-80
2023/09/10 11:03:13;;;;;;;1999.90;999.90;;;30.50;99.90;;;;;;5072976;28;20032;-76
2023/09/10 11:05:54;;;;;;;1999.90;999.90;;;30.80;99.90;;;;;;5092121;28;20036;-76
2023/09/10 11:08:55;;;;;;;1999.90;999.90;;;30.80;99.90;;;;;;5087758;28;20113;-79
2023/09/10 11:11:37;;;;;;;1999.90;999.90;;;30.70;99.90;;;;;;5029372;28;20493;-79
2023/09/10 11:14:08;;;;;;;1999.90;999.90;;;30.70;99.90;;;;;;5011878;28;20041;-79
2023/09/10 11:16:34;;;;;;;1999.90;999.90;;;30.10;99.90;;;;;;5019120;28;20083;-76
2023/09/10 11:19:02;;;;;;;1999.90;999.90;;;30.00;99.90;;;;;;5030637;28;20125;-76
2023/09/10 11:21:56;;;;;;;1999.90;999.90;;;30.10;99.90;;;;;;5030611;28;20461;-79
2023/09/10 11:24:22;;;;;;;1999.90;999.90;;;30.30;99.90;;;;;;5020905;28;20045;-79
2023/09/10 11:26:48;;;;;;;1999.90;999.90;;;30.50;99.90;;;;;;5030147;28;20038;-79
2023/09/10 11:29:18;;;;;;;1999.90;999.90;;;30.40;99.90;;;;;;5030809;28;20108;-76
2023/09/10 11:31:46;;;;;;;1999.90;999.90;;;30.10;99.90;;;;;;5030567;28;20099;-76
2023/09/10 11:34:17;;;;;;;1999.90;999.90;;;30.20;99.90;;;;;;5030542;28;20033;-79
2023/09/10 11:36:45;;;;;;;1999.90;999.90;;;30.60;99.90;;;;;;5030692;28;20057;-79
2023/09/10 11:39:13;;;;;;;1999.90;999.90;;;30.90;99.90;;;;;;5030653;28;20132;-76
2023/09/10 11:41:38;;;;;;;1999.90;999.90;;;30.60;99.90;;;;;;5030816;28;20021;-79
2023/09/10 11:44:04;;;;;;;1999.90;999.90;;;30.50;99.90;;;;;;5030371;28;20032;-76
2023/09/10 11:46:30;;;;;;;1999.90;999.90;;;29.90;99.90;;;;;;5092411;28;20020;-80
2023/09/10 11:48:58;;;;;;;1999.90;999.90;;;30.00;99.90;;;;;;5093134;28;20032;-79
2023/09/10 11:51:23;;;;;;;1999.90;999.90;;;30.10;99.90;;;;;;5095419;28;20387;-79
2023/09/10 11:53:49;;;;;;;1999.90;999.90;;;30.00;99.90;;;;;;5096288;28;20024;-79
2023/09/10 11:56:15;;;;;;;1999.90;999.90;;;29.90;99.90;;;;;;5096456;28;20024;-75
2023/09/10 11:58:41;;;;;;;1999.90;999.90;;;30.10;99.90;;;;;;5080308;28;20085;-76